Latest Weather Observations for Green Cape

IDN60801

Issued at 6:22 pm EST Friday 1 July 2022 (issued every 10 minutes, with the page automatically refreshed every 10 minutes)

About weather observations | Map of weather stations | Latest weather observations for NSW | Other Formats
Station Details ID: 069137 Name: GREEN CAPE AWS Lat: -37.26 Lon: 150.05 Height: 19.4 m
Data from the previous 72 hours. | See also: Recent months at Green Cape
Date/Time
EST
Temp
°C
App
Temp
°C
Dew
Point
°C
Rel
Hum
%
Delta-T
°C
Wind Press
QNH
hPa
Press
MSL
hPa
Rain since
9am
mm
Dir  Spd
km/h
Gust
km/h
Spd
kts
Gust
kts
01/06:00pm 11.3 7.3 9.0 86 1.1 S 20 30 11 16 1028.6 1028.6 0.4
01/05:30pm 11.9 7.0 8.6 80 1.6 SSW 24 32 13 17 1028.3 1028.3 0.2
01/05:00pm 12.1 6.5 8.6 79 1.7 SSW 28 33 15 18 1028.1 1028.1 0.2
01/04:30pm 12.3 6.1 8.0 75 2.1 S 30 33 16 18 1028.0 1028.0 0.2
01/04:00pm 11.8 5.6 7.9 77 1.9 SW 30 33 16 18 1027.8 1027.8 0.2
01/03:30pm 12.3 5.5 7.8 74 2.2 S 33 39 18 21 1027.6 1027.6 0.2
01/03:00pm 12.9 6.1 6.9 67 2.9 SSW 32 37 17 20 1027.6 1027.6 0.2
01/02:30pm 13.3 7.5 6.2 62 3.4 S 26 32 14 17 1027.7 1027.7 0.2
01/02:00pm 13.7 8.6 7.7 67 2.9 SSE 24 30 13 16 1027.8 1027.8 0.2
01/01:30pm 13.5 7.3 7.7 68 2.9 S 30 35 16 19 1027.7 1027.7 0.2
01/01:00pm 12.7 8.5 8.2 74 2.2 SSW 20 28 11 15 1028.2 1028.2 0.2
01/12:30pm 12.5 7.4 7.8 73 2.3 S 24 30 13 16 1028.4 1028.4 0.2
01/12:00pm 13.3 8.8 8.4 72 2.4 SSW 22 28 12 15 1028.4 1028.4 0.2
01/11:30am 13.3 7.3 6.9 65 3.1 S 28 30 15 16 1028.5 1028.5 0.2
01/11:00am 12.3 6.5 8.0 75 2.1 SSW 28 32 15 17 1028.5 1028.5 0.2
01/10:30am 12.5 6.2 8.8 78 1.9 SSW 32 39 17 21 1028.3 1028.3 0.2
01/10:00am 12.5 6.6 9.0 79 1.7 SSW 30 33 16 18 1028.6 1028.6 0.0
01/09:30am 12.3 7.4 8.4 77 1.9 SSW 24 28 13 15 1028.6 1028.6 0.0
01/09:00am 12.1 6.1 8.8 80 1.6 SSW 30 35 16 19 1028.4 1028.4 1.2
01/08:30am 12.0 5.7 9.0 82 1.5 SSW 32 37 17 20 1028.3 1028.3 1.2
01/08:00am 11.9 7.3 9.6 86 1.2 SSW 24 28 13 15 1028.2 1028.2 1.2
01/07:30am 11.6 6.3 9.7 88 1.0 SSW 28 32 15 17 1027.6 1027.6 1.2
01/07:00am 10.9 6.9 9.2 89 0.8 W 20 26 11 14 1027.9 1027.9 1.2
01/06:30am 11.0 7.1 9.3 89 0.9 WSW 20 24 11 13 1027.4 1027.4 1.2
01/06:00am 11.1 6.5 9.7 91 0.7 SW 24 28 13 15 1027.3 1027.3 1.2
01/05:30am 11.4 7.0 10.3 93 0.6 SW 24 26 13 14 1027.0 1027.0 1.2
01/05:00am 11.4 6.2 10.1 92 0.7 S 28 37 15 20 1026.9 1026.9 0.8
01/04:30am 11.4 5.3 9.8 90 0.8 SSW 32 37 17 20 1026.3 1026.3 0.0
01/04:00am 11.4 4.2 9.3 87 1.0 SSW 37 43 20 23 1025.8 1025.8 0.0
01/03:30am 11.7 6.9 8.9 83 1.4 SW 24 30 13 16 1026.2 1026.2 0.0
01/03:00am 11.5 7.0 8.5 82 1.5 WSW 22 24 12 13 1026.3 1026.3 0.0
01/02:30am 11.4 6.0 8.1 80 1.6 W 26 28 14 15 1026.5 1026.5 0.0
01/02:00am 11.4 6.1 6.9 74 2.1 W 24 28 13 15 1026.6 1026.6 0.0
01/01:30am 11.5 6.5 6.4 71 2.4 WSW 22 26 12 14 1026.7 1026.7 0.0
01/01:00am 11.5 4.8 5.6 67 2.7 WSW 30 35 16 19 1026.5 1026.5 0.0
01/12:30am 11.7 5.3 5.3 65 2.9 WSW 28 35 15 19 1026.2 1026.2 0.0
01/12:00am 11.6 5.5 5.0 64 3.0 WSW 26 30 14 16 1026.2 1026.2 0.0
 
Date/Time
EST
Temp
°C
App
Temp
°C
Dew
Point
°C
Rel
Hum
%
Delta-T
°C
Wind Press
QNH
hPa
Press
MSL
hPa
Rain since
9am
mm
Dir  Spd
km/h
Gust
km/h
Spd
kts
Gust
kts
30/11:30pm 11.8 5.4 5.0 63 3.1 WSW 28 32 15 17 1026.3 1026.3 0.0
30/11:00pm 11.7 5.7 5.3 65 2.9 WSW 26 32 14 17 1026.2 1026.2 0.0
30/10:30pm 11.7 6.0 5.1 64 3.0 WSW 24 28 13 15 1026.1 1026.1 0.0
30/10:00pm 11.4 6.3 5.9 69 2.5 W 22 28 12 15 1026.1 1026.1 0.0
30/09:30pm 11.3 6.5 5.8 69 2.6 W 20 24 11 13 1025.9 1025.9 0.0
30/09:00pm 11.5 6.4 6.2 70 2.5 W 22 26 12 14 1025.9 1025.9 0.0
30/08:30pm 11.6 5.8 6.3 70 2.5 W 26 32 14 17 1025.9 1025.9 0.0
30/08:00pm 11.7 6.0 6.6 71 2.4 W 26 32 14 17 1025.5 1025.5 0.0
30/07:30pm 11.7 6.4 7.0 73 2.2 WSW 24 28 13 15 1025.2 1025.2 0.0
30/07:00pm 11.8 6.5 6.7 71 2.4 SW 24 28 13 15 1025.1 1025.1 0.0
30/06:30pm 12.1 6.2 7.4 73 2.3 WSW 28 32 15 17 1024.8 1024.8 0.0
30/06:00pm 12.1 6.9 7.4 73 2.3 WSW 24 28 13 15 1024.7 1024.7 0.0
30/05:30pm 12.1 7.2 7.0 71 2.4 WSW 22 24 12 13 1024.5 1024.5 0.0
30/05:00pm 12.3 7.1 7.2 71 2.4 SW 24 28 13 15 1024.3 1024.3 0.0
30/04:30pm 12.4 7.2 7.1 70 2.6 WSW 24 30 13 16 1024.0 1024.0 0.0
30/04:00pm 12.7 7.1 7.2 69 2.6 WSW 26 32 14 17 1023.9 1023.9 0.0
30/03:30pm 13.1 8.6 7.1 67 2.9 WSW 20 26 11 14 1023.9 1023.9 0.0
30/03:00pm 13.2 8.1 6.1 62 3.4 SW 22 26 12 14 1023.6 1023.6 0.0
30/02:30pm 13.5 7.2 5.9 60 3.6 SW 28 32 15 17 1023.5 1023.5 0.0
30/02:00pm 13.5 7.4 6.6 63 3.3 SW 28 33 15 18 1023.3 1023.3 0.0
30/01:30pm 13.9 7.5 7.0 63 3.4 SSW 30 37 16 20 1023.3 1023.3 0.0
30/01:00pm 14.1 8.8 8.3 68 2.9 SSW 26 30 14 16 1023.5 1023.5 0.0
30/12:30pm 13.7 7.8 7.7 67 3.0 SSW 28 33 15 18 1023.8 1023.8 0.0
30/12:00pm 14.0 7.0 5.9 58 3.8 SSW 32 39 17 21 1023.7 1023.7 0.0
30/11:30am 13.7 8.6 5.8 59 3.7 SW 22 30 12 16 1024.0 1024.0 0.0
30/11:00am 13.2 6.9 5.9 61 3.4 WSW 28 32 15 17 1024.3 1024.3 0.0
30/10:30am 12.7 8.0 6.1 64 3.1 W 20 26 11 14 1024.1 1024.1 0.0
30/10:00am 12.3 6.8 5.9 65 3.0 W 24 28 13 15 1024.1 1024.1 0.0
30/09:30am 11.8 7.2 6.5 70 2.5 WSW 20 24 11 13 1024.1 1024.1 0.0
30/09:00am 11.0 6.5 6.2 72 2.2 W 19 22 10 12 1023.8 1023.8 0.0
30/08:30am 10.9 6.7 5.9 71 2.3 W 17 22 9 12 1023.5 1023.5 0.0
30/08:00am 10.8 6.8 4.9 67 2.7 WNW 15 20 8 11 1023.3 1023.3 0.0
30/07:30am 11.2 7.3 5.3 67 2.7 W 15 20 8 11 1022.9 1022.9 0.0
30/07:00am 11.2 7.8 4.2 62 3.1 W 11 15 6 8 1022.5 1022.5 0.0
30/06:30am 11.1 7.0 4.6 64 2.9 W 15 19 8 10 1022.4 1022.4 0.0
30/06:00am 11.4 8.1 4.8 64 3.0 W 11 13 6 7 1021.9 1021.9 0.0
30/05:30am 11.2 7.9 4.7 64 2.9 W 11 13 6 7 1021.4 1021.4 0.0
30/05:00am 11.5 7.7 6.0 69 2.6 WSW 15 17 8 9 1020.9 1020.9 0.0
30/04:30am 11.2 6.7 5.9 70 2.5 WSW 19 22 10 12 1020.8 1020.8 0.0
30/04:00am 11.1 6.4 6.0 71 2.4 WSW 20 24 11 13 1020.6 1020.6 0.0
30/03:30am 10.8 6.3 6.9 77 1.8 WSW 20 24 11 13 1020.6 1020.6 0.0
30/03:00am 10.3 5.3 6.3 76 1.9 W 22 26 12 14 1020.7 1020.7 0.0
30/02:30am 11.0 6.3 6.2 72 2.2 W 20 24 11 13 1021.0 1021.0 0.0
30/02:00am 10.6 6.8 6.0 73 2.1 WSW 15 19 8 10 1020.8 1020.8 0.0
30/01:30am 10.0 5.7 5.4 73 2.1 W 17 19 9 10 1020.9 1020.9 0.0
30/01:00am 9.9 5.8 4.3 68 2.5 W 15 17 8 9 1020.9 1020.9 0.0
30/12:30am 9.9 5.5 4.7 70 2.3 W 17 20 9 11 1020.9 1020.9 0.0
30/12:00am 10.2 6.0 3.9 65 2.8 W 15 17 8 9 1020.8 1020.8 0.0
 
Date/Time
EST
Temp
°C
App
Temp
°C
Dew
Point
°C
Rel
Hum
%
Delta-T
°C
Wind Press
QNH
hPa
Press
MSL
hPa
Rain since
9am
mm
Dir  Spd
km/h
Gust
km/h
Spd
kts
Gust
kts
29/11:30pm 9.9 5.5 4.9 71 2.2 W 17 19 9 10 1021.1 1021.1 0.0
29/11:00pm 10.2 6.6 5.0 70 2.3 WSW 13 15 7 8 1020.6 1020.6 0.0
29/10:30pm 9.6 6.1 5.4 75 1.9 W 13 22 7 12 1020.7 1020.7 0.0
29/10:00pm 9.8 5.2 6.7 81 1.4 W 20 24 11 13 1020.9 1020.9 0.0
29/09:30pm 9.6 6.0 6.7 82 1.4 W 15 17 8 9 1020.5 1020.5 0.0
29/09:00pm 9.4 6.2 6.8 84 1.2 W 13 17 7 9 1020.4 1020.4 0.0
29/08:30pm 9.4 5.5 7.2 86 1.0 WSW 17 20 9 11 1020.6 1020.6 0.0
29/08:00pm 9.7 6.6 7.3 85 1.1 W 13 15 7 8 1020.5 1020.5 0.0
29/07:30pm 9.9 7.1 6.8 81 1.5 W 11 15 6 8 1020.9 1020.9 0.0
29/07:00pm 10.3 7.6 7.5 83 1.3 W 11 15 6 8 1020.8 1020.8 0.0
29/06:30pm 10.7 8.8 7.4 80 1.6 W 7 9 4 5 1020.3 1020.3 0.0
29/06:00pm 10.9 10.0 7.6 80 1.6 W 2 9 1 5 1020.5 1020.5 0.0
29/05:30pm 11.7 8.5 5.3 65 2.9 S 11 13 6 7 1020.8 1020.8 0.0
29/05:00pm 11.7 9.4 4.9 63 3.1 SSE 6 7 3 4 1020.5 1020.5 0.0
29/04:30pm 12.2 9.5 5.8 65 3.0 SSE 9 13 5 7 1020.3 1020.3 0.0
29/04:00pm 12.7 9.8 6.3 65 3.0 SSE 11 15 6 8 1020.3 1020.3 0.0
29/03:30pm 13.0 10.5 6.4 64 3.1 SSE 9 13 5 7 1020.8 1020.8 0.0
29/03:00pm 13.4 10.6 7.0 65 3.1 S 11 13 6 7 1020.8 1020.8 0.0
29/02:30pm 13.1 9.8 6.5 64 3.2 S 13 15 7 8 1020.9 1020.9 0.0
29/02:00pm 14.1 13.3 6.5 60 3.6 CALM 0 0 0 0 1021.4 1021.4 0.0
29/01:30pm 14.1 13.3 6.5 60 3.7 CALM 0 6 0 3 1022.0 1022.0 0.0
29/01:00pm 13.0 11.6 5.4 60 3.5 SW 2 9 1 5 1022.4 1022.4 0.0
29/12:30pm 12.5 10.2 5.0 60 3.5 SW 6 9 3 5 1022.8 1022.8 0.0
29/12:00pm 11.9 9.0 4.6 61 3.3 WSW 9 13 5 7 1023.3 1023.3 0.0
29/11:30am 11.8 8.7 3.8 58 3.6 WSW 9 13 5 7 1023.7 1023.7 0.0
29/11:00am 10.7 9.3 3.3 60 3.2 CALM 0 0 0 0 1024.3 1024.3 0.0
29/10:30am 10.8 7.5 4.5 65 2.8 W 11 13 6 7 1025.0 1025.0 0.0
29/10:00am 9.8 5.6 4.0 67 2.5 W 15 19 8 10 1025.2 1025.2 0.0
29/09:30am 8.6 3.5 3.0 68 2.4 W 19 24 10 13 1025.0 1025.0 0.0
29/09:00am 8.3 3.2 3.9 74 1.9 W 20 26 11 14 1024.8 1024.8 0.0
29/08:30am 7.9 2.8 4.3 78 1.6 W 20 24 11 13 1024.6 1024.6 0.0
29/08:00am 7.8 3.8 4.7 81 1.4 W 15 17 8 9 1024.7 1024.7 0.0
29/07:30am 7.7 6.5 4.7 81 1.3 CALM 0 0 0 0 1024.6 1024.6 0.0
29/07:00am 7.3 6.0 4.3 81 1.3 CALM 0 0 0 0 1024.4 1024.4 0.0
29/06:30am 7.4 6.1 4.2 80 1.4 CALM 0 0 0 0 1024.4 1024.4 0.0
29/06:00am 7.2 5.9 4.3 82 1.2 CALM 0 0 0 0 1024.5 1024.5 0.0
29/05:30am 7.4 6.3 5.0 85 1.1 CALM 0 0 0 0 1024.3 1024.3 0.0
29/05:00am 7.1 6.0 4.9 86 1.0 CALM 0 0 0 0 1023.9 1023.9 0.0
29/04:30am 7.5 6.3 4.6 82 1.3 CALM 0 0 0 0 1024.2 1024.2 0.0
29/04:00am 7.8 6.4 3.8 76 1.7 CALM 0 0 0 0 1024.5 1024.5 0.0
29/03:30am 7.4 6.3 5.2 86 1.0 CALM 0 0 0 0 1024.8 1024.8 0.0
29/03:00am 8.5 7.4 5.1 79 1.5 CALM 0 0 0 0 1025.0 1025.0 0.0
29/02:30am 7.3 6.2 5.0 85 1.0 CALM 0 0 0 0 1025.3 1025.3 0.0
29/02:00am 7.4 6.3 5.2 86 1.0 CALM 0 0 0 0 1025.6 1025.6 0.0
29/01:30am 8.0 7.0 5.5 84 1.1 CALM 0 0 0 0 1025.6 1025.6 0.0
29/01:00am 8.2 7.1 5.0 80 1.4 CALM 0 0 0 0 1025.7 1025.7 0.0
29/12:30am 8.4 6.2 5.5 82 1.3 WNW 6 13 3 7 1026.1 1026.1 0.0
29/12:00am 9.8 6.6 5.0 72 2.1 N 11 17 6 9 1026.1 1026.1 0.0
 
Date/Time
EST
Temp
°C
App
Temp
°C
Dew
Point
°C
Rel
Hum
%
Delta-T
°C
Wind Press
QNH
hPa
Press
MSL
hPa
Rain since
9am
mm
Dir  Spd
km/h
Gust
km/h
Spd
kts
Gust
kts
28/11:30pm 9.4 6.9 5.0 74 2.0 NNW 7 9 4 5 1026.7 1026.7 0.0
28/11:00pm 10.0 6.8 5.0 71 2.2 N 11 17 6 9 1026.8 1026.8 0.0
28/10:30pm 9.8 6.4 3.8 66 2.6 NW 11 17 6 9 1027.2 1027.2 0.0
28/10:00pm 10.2 5.6 5.6 73 2.1 N 19 28 10 15 1027.0 1027.0 0.0
28/09:30pm 10.3 4.8 5.9 74 2.0 N 24 30 13 16 1026.9 1026.9 0.0
28/09:00pm 10.5 4.6 5.9 73 2.1 N 26 32 14 17 1027.2 1027.2 0.0
28/08:30pm 10.7 6.0 6.1 73 2.1 N 20 26 11 14 1027.5 1027.5 0.0
28/08:00pm 9.7 7.2 4.9 72 2.1 NNW 7 15 4 8 1028.1 1028.1 0.0
28/07:30pm 10.5 7.8 5.7 72 2.2 N 9 15 5 8 1028.0 1028.0 0.0
28/07:00pm 11.0 7.0 4.9 66 2.7 N 15 19 8 10 1028.5 1028.5 0.0
28/06:30pm 10.9 7.1 5.7 70 2.4 N 15 20 8 11 1028.4 1028.4 0.0

Other formats

Comma delimited format used in spreadsheet applications
http://www.bom.gov.au/fwo/IDN60801/IDN60801.94934.axf

JavaScript Object Notation format (JSON) in row-major order
http://www.bom.gov.au/fwo/IDN60801/IDN60801.94934.json

Data quality

Most of these data are generated automatically and are frequently updated. Quality checks on data are not normally performed. It is possible for incorrect values to appear. Refer to information at About Latest Weather Observations and please check the disclaimer before using these data.